createdAt,value
2022-11-23T00:01:27.384Z,44.60
2022-11-23T00:03:57.176Z,44.52
2022-11-23T00:06:26.017Z,44.27
2022-11-23T00:08:54.262Z,44.26
2022-11-23T00:11:23.476Z,44.72
2022-11-23T00:13:51.239Z,44.14
2022-11-23T00:16:21.170Z,44.48
2022-11-23T00:18:49.001Z,44.83
2022-11-23T00:21:18.316Z,44.37
2022-11-23T00:23:46.438Z,44.29
2022-11-23T00:26:14.672Z,44.58
2022-11-23T00:28:43.090Z,44.19
2022-11-23T00:31:13.780Z,44.65
2022-11-23T00:33:42.007Z,44.38
2022-11-23T00:36:13.395Z,44.68
2022-11-23T00:38:41.849Z,44.65
2022-11-23T00:41:14.856Z,44.14
2022-11-23T00:43:43.808Z,44.15
2022-11-23T00:46:23.351Z,44.24
2022-11-23T00:48:53.144Z,44.19
2022-11-23T00:51:32.436Z,44.65
2022-11-23T00:54:01.080Z,44.66
2022-11-23T00:56:30.290Z,44.57
2022-11-23T00:58:59.444Z,44.10
2022-11-23T01:01:30.901Z,44.42
2022-11-23T01:03:59.828Z,44.54
2022-11-23T01:06:32.152Z,44.25
2022-11-23T01:09:02.453Z,44.20
2022-11-23T01:11:31.843Z,44.30
2022-11-23T01:14:01.189Z,44.37
2022-11-23T01:16:35.057Z,44.24
2022-11-23T01:19:05.900Z,44.42
2022-11-23T01:21:34.640Z,44.20
2022-11-23T01:24:11.931Z,44.24
2022-11-23T01:26:40.324Z,44.33
2022-11-23T01:29:08.523Z,43.92
2022-11-23T01:31:41.753Z,44.26
2022-11-23T01:34:16.448Z,44.63
2022-11-23T01:36:44.796Z,44.84
2022-11-23T01:39:13.097Z,44.16
2022-11-23T01:41:43.050Z,44.02
2022-11-23T01:44:27.678Z,44.54
2022-11-23T01:46:59.494Z,44.40
2022-11-23T01:49:32.256Z,44.10
2022-11-23T01:52:06.960Z,44.71
2022-11-23T01:54:40.588Z,44.77
2022-11-23T01:57:13.482Z,44.93
2022-11-23T01:59:41.130Z,44.42
2022-11-23T02:02:08.716Z,44.86
2022-11-23T02:04:40.488Z,44.79
2022-11-23T02:07:09.176Z,44.69
2022-11-23T02:09:37.372Z,44.77
2022-11-23T02:12:11.894Z,45.01
2022-11-23T02:14:41.241Z,45.14
2022-11-23T02:17:09.125Z,45.02
2022-11-23T02:20:05.809Z,44.41
2022-11-23T02:22:39.341Z,44.99
2022-11-23T02:25:16.089Z,44.87
2022-11-23T02:27:46.931Z,44.54
2022-11-23T02:30:14.980Z,44.68
2022-11-23T02:32:43.529Z,44.69
2022-11-23T02:35:13.945Z,45.10
2022-11-23T02:37:44.044Z,44.49
2022-11-23T02:40:28.048Z,45.07
2022-11-23T02:42:55.564Z,44.82
2022-11-23T02:45:59.777Z,44.93
2022-11-23T02:48:27.195Z,44.73
2022-11-23T02:50:55.452Z,44.52
2022-11-23T02:53:24.767Z,45.02
2022-11-23T02:55:54.477Z,45.13
2022-11-23T02:58:21.902Z,45.06
2022-11-23T03:00:49.478Z,45.23
2022-11-23T03:03:20.328Z,45.28
2022-11-23T03:05:47.792Z,45.06
2022-11-23T03:08:15.206Z,45.17
2022-11-23T03:10:43.184Z,45.13
2022-11-23T03:13:11.745Z,45.16
2022-11-23T03:15:40.999Z,45.15
2022-11-23T03:18:10.016Z,45.14
2022-11-23T03:20:38.877Z,44.79
2022-11-23T03:23:06.410Z,45.13
2022-11-23T03:25:34.302Z,45.16
2022-11-23T03:28:02.416Z,45.02
2022-11-23T03:30:31.636Z,45.41
2022-11-23T03:32:59.362Z,45.42
2022-11-23T03:35:27.863Z,45.04
2022-11-23T03:38:16.141Z,45.25
2022-11-23T03:40:45.934Z,45.44
2022-11-23T03:43:19.676Z,45.31
2022-11-23T03:45:47.849Z,45.61
2022-11-23T03:48:16.048Z,45.47
2022-11-23T03:50:45.002Z,45.54
2022-11-23T03:53:12.833Z,45.60
2022-11-23T03:55:40.513Z,45.50
2022-11-23T03:58:08.009Z,45.58
2022-11-23T04:00:36.632Z,45.45
2022-11-23T04:03:04.592Z,45.54
2022-11-23T04:05:50.750Z,45.40
2022-11-23T04:08:23.732Z,45.28
2022-11-23T04:10:56.053Z,45.52
2022-11-23T04:13:32.348Z,45.75
2022-11-23T04:15:59.790Z,45.27
2022-11-23T04:18:27.269Z,45.25
2022-11-23T04:20:54.784Z,45.53
2022-11-23T04:23:22.345Z,45.32
2022-11-23T04:25:50.992Z,45.40
2022-11-23T04:28:19.758Z,45.56
2022-11-23T04:30:49.187Z,45.26
2022-11-23T04:33:16.905Z,45.57
2022-11-23T04:35:45.035Z,45.41
2022-11-23T04:38:12.749Z,45.46
2022-11-23T04:40:40.173Z,45.52
2022-11-23T04:43:09.616Z,45.52
2022-11-23T04:45:39.819Z,45.32
2022-11-23T04:48:12.970Z,45.49
2022-11-23T04:50:43.713Z,45.23
2022-11-23T04:53:15.234Z,45.40
2022-11-23T04:55:47.425Z,45.37
2022-11-23T04:58:16.317Z,45.03
2022-11-23T05:00:43.851Z,45.18
2022-11-23T05:03:13.401Z,44.85
2022-11-23T05:05:42.762Z,45.43
2022-11-23T05:08:10.395Z,44.27
2022-11-23T05:11:07.307Z,44.71
2022-11-23T05:13:34.810Z,45.13
2022-11-23T05:16:03.633Z,45.22
2022-11-23T05:18:31.360Z,45.11
2022-11-23T05:20:58.988Z,45.35
2022-11-23T05:23:27.213Z,44.99
2022-11-23T05:25:55.272Z,45.70
2022-11-23T05:28:40.624Z,42.95
2022-11-23T05:31:11.894Z,42.48
2022-11-23T05:33:39.465Z,41.59
2022-11-23T05:36:09.752Z,41.19
2022-11-23T05:38:41.468Z,40.39
2022-11-23T05:41:16.701Z,40.78
2022-11-23T05:43:45.256Z,41.35
2022-11-23T05:46:18.846Z,41.35
2022-11-23T05:48:47.045Z,41.96
2022-11-23T05:51:14.520Z,42.17
2022-11-23T05:53:46.139Z,42.32
2022-11-23T05:56:19.562Z,42.72
2022-11-23T05:59:11.612Z,43.20
2022-11-23T06:01:41.267Z,43.50
2022-11-23T06:04:11.062Z,43.33
2022-11-23T06:06:43.344Z,42.46
2022-11-23T06:09:11.258Z,42.90
2022-11-23T06:11:40.986Z,42.75
2022-11-23T06:14:14.605Z,42.57
2022-11-23T06:16:44.909Z,42.35
2022-11-23T06:19:30.712Z,42.28
2022-11-23T06:21:59.211Z,42.31
2022-11-23T06:24:30.066Z,42.23
2022-11-23T06:27:18.245Z,42.14
2022-11-23T06:29:48.356Z,42.36
2022-11-23T06:32:16.145Z,41.96
2022-11-23T06:34:43.700Z,41.88
2022-11-23T06:37:11.501Z,41.71
2022-11-23T06:39:40.176Z,41.67
2022-11-23T06:42:37.365Z,41.21
2022-11-23T06:44:56.193Z,41.45
2022-11-23T06:47:26.208Z,41.69
2022-11-23T06:49:54.451Z,41.46
2022-11-23T06:52:28.508Z,41.40
2022-11-23T06:54:56.287Z,41.49
2022-11-23T06:57:25.507Z,41.43
2022-11-23T06:59:54.437Z,41.26
2022-11-23T07:02:27.767Z,41.11
2022-11-23T07:04:57.987Z,41.12
2022-11-23T07:07:27.345Z,41.28
2022-11-23T07:10:07.249Z,41.23
2022-11-23T07:12:50.617Z,41.02
2022-11-23T07:15:21.072Z,41.09
2022-11-23T07:17:50.661Z,40.97
2022-11-23T07:20:20.532Z,41.00
2022-11-23T07:22:48.134Z,40.94
2022-11-23T07:25:19.001Z,40.94
2022-11-23T07:27:46.473Z,40.69
2022-11-23T07:30:14.401Z,40.73
2022-11-23T07:32:41.881Z,40.74
2022-11-23T07:35:09.796Z,40.65
2022-11-23T07:37:39.745Z,40.68
2022-11-23T07:40:07.895Z,40.76
2022-11-23T07:42:44.222Z,40.71
2022-11-23T07:45:13.220Z,40.63
2022-11-23T07:47:45.547Z,40.78
2022-11-23T07:50:13.798Z,40.45
2022-11-23T07:52:41.697Z,40.63
2022-11-23T07:55:09.665Z,40.44
2022-11-23T07:57:37.045Z,40.41
2022-11-23T08:00:05.100Z,40.40
2022-11-23T08:02:52.824Z,40.72
2022-11-23T08:05:27.815Z,40.61
2022-11-23T08:08:00.134Z,40.71
2022-11-23T08:10:29.596Z,40.55
2022-11-23T08:12:58.680Z,40.21
2022-11-23T08:15:28.189Z,40.36
2022-11-23T08:17:57.338Z,40.41
2022-11-23T08:20:25.783Z,40.44
2022-11-23T08:22:55.895Z,40.45
2022-11-23T08:25:27.801Z,40.38
2022-11-23T08:28:00.078Z,40.52
2022-11-23T08:30:29.643Z,40.43
2022-11-23T08:32:57.505Z,40.61
2022-11-23T08:35:25.094Z,40.37
2022-11-23T08:37:52.516Z,40.56
2022-11-23T08:40:25.002Z,40.34
2022-11-23T08:42:52.905Z,40.38
2022-11-23T08:45:20.562Z,40.44
2022-11-23T08:47:48.128Z,40.45
2022-11-23T08:50:15.665Z,40.30
2022-11-23T08:52:43.458Z,40.33
2022-11-23T08:55:11.372Z,40.70
2022-11-23T08:57:38.970Z,40.35
2022-11-23T09:00:07.435Z,40.27
2022-11-23T09:02:34.917Z,40.33
2022-11-23T09:05:02.312Z,40.41
2022-11-23T09:07:29.793Z,40.37
2022-11-23T09:09:57.270Z,40.27
2022-11-23T09:12:24.693Z,40.55
2022-11-23T09:14:53.122Z,40.52
2022-11-23T09:17:20.560Z,40.33
2022-11-23T09:19:50.273Z,40.66
2022-11-23T09:22:17.805Z,40.41
2022-11-23T09:24:45.234Z,40.42
2022-11-23T09:27:13.114Z,40.52
2022-11-23T09:29:40.739Z,40.36
2022-11-23T09:32:08.137Z,40.30
2022-11-23T09:34:35.964Z,40.46
2022-11-23T09:37:03.420Z,40.35
2022-11-23T09:39:30.965Z,40.43
2022-11-23T09:42:10.312Z,40.43
2022-11-23T09:45:04.998Z,40.52
2022-11-23T09:47:51.582Z,40.69
2022-11-23T09:50:31.472Z,40.68
2022-11-23T09:53:06.768Z,40.68
2022-11-23T09:55:44.722Z,40.67
2022-11-23T09:58:36.806Z,40.32
2022-11-23T10:01:07.989Z,40.74
2022-11-23T10:03:46.997Z,40.46
2022-11-23T10:06:28.206Z,40.55
2022-11-23T10:09:21.784Z,40.67
2022-11-23T10:12:08.749Z,40.55
2022-11-23T10:15:11.566Z,40.57
2022-11-23T10:18:04.981Z,40.38
2022-11-23T10:20:57.031Z,40.74
2022-11-23T10:23:33.371Z,40.53
2022-11-23T10:26:00.773Z,40.82
2022-11-23T10:28:31.661Z,40.68
2022-11-23T10:31:26.379Z,40.54
2022-11-23T10:34:12.808Z,40.50
2022-11-23T10:36:41.876Z,40.76
2022-11-23T10:39:15.472Z,40.59
2022-11-23T10:41:46.257Z,40.74
2022-11-23T10:44:37.840Z,40.81
2022-11-23T10:47:05.636Z,40.96
2022-11-23T10:49:35.013Z,40.94
2022-11-23T10:52:05.812Z,40.63
2022-11-23T10:54:37.090Z,40.92
2022-11-23T10:57:27.728Z,40.67
2022-11-23T10:59:59.605Z,40.79
2022-11-23T11:02:28.257Z,40.66
2022-11-23T11:05:14.640Z,40.67
2022-11-23T11:07:42.254Z,40.79
2022-11-23T11:10:37.781Z,40.96
2022-11-23T11:13:25.488Z,40.91
2022-11-23T11:16:01.838Z,40.86
2022-11-23T11:18:38.087Z,40.60
2022-11-23T11:21:17.173Z,40.77
2022-11-23T11:23:52.731Z,40.79
2022-11-23T11:26:23.859Z,40.69
2022-11-23T11:28:56.668Z,40.81
2022-11-23T11:31:32.293Z,40.62
2022-11-23T11:34:21.128Z,40.80
2022-11-23T11:37:14.845Z,40.55
2022-11-23T11:39:44.887Z,40.67
2022-11-23T11:42:32.989Z,40.72
2022-11-23T11:45:03.480Z,40.94
2022-11-23T11:47:43.400Z,40.95
2022-11-23T11:50:28.607Z,40.78
2022-11-23T11:53:08.383Z,40.70
2022-11-23T11:56:00.562Z,40.93
2022-11-23T11:58:28.018Z,40.67
2022-11-23T12:01:08.589Z,40.92
2022-11-23T12:03:56.673Z,40.90
2022-11-23T12:06:33.013Z,40.67
2022-11-23T12:09:07.102Z,40.74
2022-11-23T12:11:34.677Z,40.84
2022-11-23T12:14:04.890Z,40.81
2022-11-23T12:17:16.989Z,40.67
2022-11-23T12:20:07.600Z,40.82
2022-11-23T12:23:04.335Z,41.06
2022-11-23T12:25:41.940Z,40.84
2022-11-23T12:28:24.420Z,40.82
2022-11-23T12:31:04.275Z,40.93
2022-11-23T12:34:04.684Z,41.15
2022-11-23T12:36:52.337Z,41.06
2022-11-23T12:39:38.017Z,40.73
2022-11-23T12:42:05.367Z,40.92
2022-11-23T12:44:41.816Z,40.81
2022-11-23T12:47:28.103Z,40.79
2022-11-23T12:50:02.536Z,40.90
2022-11-23T12:52:57.255Z,40.81
2022-11-23T12:55:42.932Z,41.85
2022-11-23T12:58:25.509Z,41.57
2022-11-23T13:01:01.211Z,41.30
2022-11-23T13:04:02.929Z,42.13
2022-11-23T13:06:30.261Z,42.64
2022-11-23T13:09:16.793Z,43.07
2022-11-23T13:12:03.044Z,44.34
2022-11-23T13:14:44.862Z,45.01
2022-11-23T13:17:23.529Z,44.99
2022-11-23T13:20:08.376Z,44.77
2022-11-23T13:22:37.226Z,44.49
2022-11-23T13:25:15.696Z,44.83
2022-11-23T13:27:44.876Z,44.19
2022-11-23T13:33:38.000Z,43.93
2022-11-23T13:36:12.679Z,43.84
2022-11-23T13:38:44.084Z,43.81
2022-11-23T13:41:33.888Z,43.79
2022-11-23T13:44:25.324Z,43.76
2022-11-23T13:47:04.653Z,43.45
2022-11-23T13:49:44.655Z,43.69
2022-11-23T13:52:21.332Z,43.72
2022-11-23T13:55:09.386Z,43.64
2022-11-23T13:57:44.317Z,43.75
2022-11-23T14:00:47.833Z,43.60
2022-11-23T14:04:00.626Z,43.09
2022-11-23T14:06:56.800Z,43.11
2022-11-23T14:09:53.034Z,43.39
2022-11-23T14:12:42.047Z,43.09
2022-11-23T14:15:23.939Z,43.15
2022-11-23T14:18:13.281Z,42.72
2022-11-23T14:21:14.022Z,42.99
2022-11-23T14:24:03.067Z,42.83
2022-11-23T14:27:39.435Z,43.13
2022-11-23T14:30:16.887Z,42.98
2022-11-23T14:33:04.335Z,42.72
2022-11-23T14:36:07.013Z,42.85
2022-11-23T14:38:56.085Z,42.77
2022-11-23T14:41:30.852Z,42.88
2022-11-23T14:44:00.497Z,42.51
2022-11-23T14:46:27.975Z,42.93
2022-11-23T14:49:07.376Z,43.18
2022-11-23T14:51:39.581Z,43.16
2022-11-23T14:54:11.305Z,43.32
2022-11-23T14:56:47.511Z,43.38
2022-11-23T14:59:17.643Z,43.32
2022-11-23T15:01:58.200Z,43.06
2022-11-23T15:04:35.720Z,43.29
2022-11-23T15:07:26.489Z,43.26
2022-11-23T15:10:31.470Z,43.66
2022-11-23T15:12:58.919Z,43.24
2022-11-23T15:15:30.992Z,43.08
2022-11-23T15:18:01.590Z,43.06
2022-11-23T15:20:34.808Z,42.82
2022-11-23T15:23:03.371Z,43.34
2022-11-23T15:25:31.831Z,43.15
2022-11-23T15:27:59.336Z,43.42
2022-11-23T15:30:29.943Z,43.19
2022-11-23T15:33:02.391Z,43.26
2022-11-23T15:35:33.451Z,43.20
2022-11-23T15:38:02.373Z,43.06
2022-11-23T15:40:37.608Z,43.34
2022-11-23T15:43:05.295Z,43.09
2022-11-23T15:45:41.769Z,43.15
2022-11-23T15:48:32.470Z,42.96
2022-11-23T15:51:05.569Z,43.63
2022-11-23T15:53:51.049Z,42.81
2022-11-23T15:56:31.988Z,42.92
2022-11-23T15:59:02.095Z,42.92
2022-11-23T16:01:30.027Z,43.08
2022-11-23T16:04:04.495Z,43.07
2022-11-23T16:06:40.667Z,42.52
2022-11-23T16:09:52.141Z,43.29
2022-11-23T16:12:25.631Z,42.65
2022-11-23T16:14:55.493Z,42.76
2022-11-23T16:17:28.469Z,43.01
2022-11-23T16:20:04.005Z,42.64
2022-11-23T16:22:39.036Z,42.73
2022-11-23T16:25:21.220Z,42.46
2022-11-23T16:28:14.858Z,42.25
2022-11-23T16:30:44.327Z,42.47
2022-11-23T16:33:20.519Z,42.19
2022-11-23T16:35:48.384Z,42.50
2022-11-23T16:38:15.894Z,42.68
2022-11-23T16:40:44.504Z,42.40
2022-11-23T16:43:13.064Z,42.60
2022-11-23T16:45:44.030Z,42.90
2022-11-23T16:48:26.838Z,42.72
2022-11-23T16:50:56.087Z,42.72
2022-11-23T16:53:26.855Z,42.64
2022-11-23T16:55:55.739Z,42.82
2022-11-23T16:58:30.925Z,42.96
2022-11-23T17:00:58.359Z,43.05
2022-11-23T17:03:25.765Z,42.84
2022-11-23T17:05:53.174Z,42.98
2022-11-23T17:08:23.903Z,42.85
2022-11-23T17:10:52.035Z,42.59
2022-11-23T17:13:25.422Z,43.46
2022-11-23T17:15:53.137Z,42.90
2022-11-23T17:18:22.150Z,42.93
2022-11-23T17:20:49.827Z,42.68
2022-11-23T17:23:17.287Z,43.00
2022-11-23T17:25:44.776Z,43.29
2022-11-23T17:28:17.430Z,42.69
2022-11-23T17:30:44.906Z,42.56
2022-11-23T17:33:12.516Z,42.32
2022-11-23T17:35:40.771Z,42.55
2022-11-23T17:38:16.754Z,42.70
2022-11-23T17:40:44.308Z,42.63
2022-11-23T17:43:14.347Z,42.50
2022-11-23T17:45:43.852Z,42.49
2022-11-23T17:48:16.650Z,42.22
2022-11-23T17:50:44.213Z,42.29
2022-11-23T17:53:11.700Z,42.66
2022-11-23T17:55:39.599Z,42.49
2022-11-23T17:58:07.454Z,42.25
2022-11-23T18:00:37.097Z,42.62
2022-11-23T18:03:04.585Z,42.76
2022-11-23T18:05:32.270Z,42.89
2022-11-23T18:07:59.748Z,42.89
2022-11-23T18:10:27.186Z,43.09
2022-11-23T18:12:54.748Z,43.34
2022-11-23T18:15:22.178Z,43.29
2022-11-23T18:17:49.564Z,43.20
2022-11-23T18:20:17.124Z,43.29
2022-11-23T18:22:44.525Z,43.81
2022-11-23T18:25:11.924Z,43.55
2022-11-23T18:27:39.352Z,43.29
2022-11-23T18:30:07.617Z,43.58
2022-11-23T18:32:35.603Z,43.38
2022-11-23T18:35:05.152Z,43.53
2022-11-23T18:37:32.625Z,43.61
2022-11-23T18:40:00.023Z,43.33
2022-11-23T18:42:27.468Z,43.39
2022-11-23T18:44:55.022Z,44.23
2022-11-23T18:47:22.609Z,43.62
2022-11-23T18:49:50.189Z,44.04
2022-11-23T18:52:17.784Z,44.12
2022-11-23T18:54:45.220Z,43.70
2022-11-23T18:57:16.444Z,44.11
2022-11-23T18:59:58.858Z,43.81
2022-11-23T19:02:26.704Z,43.64
2022-11-23T19:04:54.154Z,45.15
2022-11-23T19:07:26.625Z,44.02
2022-11-23T19:09:54.891Z,43.49
2022-11-23T19:12:22.320Z,44.54
2022-11-23T19:14:50.009Z,43.54
2022-11-23T19:17:17.698Z,41.79
2022-11-23T19:19:45.090Z,42.75
2022-11-23T19:22:12.495Z,42.94
2022-11-23T19:24:40.218Z,43.97
2022-11-23T19:27:07.789Z,44.36
2022-11-23T19:29:35.456Z,44.54
2022-11-23T19:32:03.336Z,44.36
2022-11-23T19:34:30.772Z,44.57
2022-11-23T19:36:58.226Z,44.88
2022-11-23T19:39:25.690Z,44.42
2022-11-23T19:41:53.224Z,44.38
2022-11-23T19:44:20.721Z,43.98
2022-11-23T19:46:48.171Z,44.03
2022-11-23T19:49:15.629Z,43.97
2022-11-23T19:51:43.064Z,44.39
2022-11-23T19:54:10.580Z,45.13
2022-11-23T19:56:38.028Z,44.67
2022-11-23T19:59:06.389Z,44.55
2022-11-23T20:01:33.929Z,44.81
2022-11-23T20:04:08.716Z,44.17
2022-11-23T20:06:43.481Z,45.05
2022-11-23T20:09:16.644Z,45.03
2022-11-23T20:11:50.350Z,45.20
2022-11-23T20:14:18.451Z,44.59
2022-11-23T20:16:47.675Z,43.90
2022-11-23T20:19:15.214Z,43.83
2022-11-23T20:21:42.680Z,43.71
2022-11-23T20:24:12.582Z,43.50
2022-11-23T20:26:41.639Z,43.33
2022-11-23T20:29:09.593Z,43.33
2022-11-23T20:31:38.170Z,43.27
2022-11-23T20:34:08.149Z,43.38
2022-11-23T20:36:38.243Z,43.27
2022-11-23T20:39:08.124Z,43.56
2022-11-23T20:41:37.588Z,43.29
2022-11-23T20:44:11.298Z,43.17
2022-11-23T20:49:26.853Z,43.04
2022-11-23T20:51:54.304Z,43.47
2022-11-23T20:54:21.819Z,43.36
2022-11-23T20:56:49.627Z,43.72
2022-11-23T20:59:17.383Z,43.75
2022-11-23T21:01:44.835Z,43.82
2022-11-23T21:04:12.352Z,43.57
2022-11-23T21:06:40.379Z,43.73
2022-11-23T21:09:09.687Z,43.74
2022-11-23T21:11:56.183Z,43.71
2022-11-23T21:14:27.384Z,43.76
2022-11-23T21:16:59.624Z,43.88
2022-11-23T21:19:29.162Z,43.56
2022-11-23T21:21:57.914Z,43.49
2022-11-23T21:24:25.794Z,43.93
2022-11-23T21:26:53.378Z,43.89
2022-11-23T21:29:21.011Z,43.80
2022-11-23T21:31:49.381Z,43.75
2022-11-23T21:34:22.812Z,43.96
2022-11-23T21:36:51.424Z,43.45
2022-11-23T21:39:19.377Z,43.65
2022-11-23T21:41:49.863Z,43.67
2022-11-23T21:44:18.217Z,43.63
2022-11-23T21:46:45.961Z,43.71
2022-11-23T21:49:13.503Z,43.72
2022-11-23T21:51:42.709Z,43.51
2022-11-23T21:54:14.112Z,43.56
2022-11-23T21:56:42.876Z,43.83
2022-11-23T21:59:11.672Z,43.50
2022-11-23T22:01:40.200Z,43.60
2022-11-23T22:04:12.994Z,43.66
2022-11-23T22:06:42.203Z,43.43
2022-11-23T22:09:10.915Z,43.35
2022-11-23T22:11:41.227Z,43.24
2022-11-23T22:14:11.997Z,43.17
2022-11-23T22:16:41.921Z,43.16
2022-11-23T22:19:14.713Z,43.23
2022-11-23T22:21:43.897Z,43.27
2022-11-23T22:24:17.365Z,43.10
2022-11-23T22:26:46.270Z,43.11
2022-11-23T22:29:13.974Z,43.08
2022-11-23T22:31:41.677Z,43.04
2022-11-23T22:34:12.521Z,43.29
2022-11-23T22:36:39.975Z,43.31
2022-11-23T22:39:08.169Z,43.16
2022-11-23T22:41:39.248Z,43.50
2022-11-23T22:44:08.779Z,42.96
2022-11-23T22:46:36.425Z,42.89
2022-11-23T22:49:04.706Z,43.19
2022-11-23T22:51:32.489Z,43.34
2022-11-23T22:54:00.880Z,43.31
2022-11-23T22:56:30.381Z,42.84
2022-11-23T22:58:58.265Z,43.35
2022-11-23T23:01:28.743Z,43.12
2022-11-23T23:04:01.517Z,42.86
2022-11-23T23:06:33.637Z,42.90
2022-11-23T23:09:02.814Z,42.96
2022-11-23T23:11:32.077Z,43.05
2022-11-23T23:14:00.132Z,43.02
2022-11-23T23:16:28.667Z,43.11
2022-11-23T23:18:57.127Z,43.02
2022-11-23T23:21:25.959Z,43.06
2022-11-23T23:23:55.840Z,42.91
2022-11-23T23:26:25.108Z,42.62
2022-11-23T23:29:00.324Z,42.88
2022-11-23T23:31:29.865Z,42.72
2022-11-23T23:33:59.233Z,42.76
2022-11-23T23:36:26.625Z,42.91
2022-11-23T23:38:54.029Z,42.77
2022-11-23T23:41:21.630Z,43.05
2022-11-23T23:43:49.291Z,42.79
2022-11-23T23:46:17.336Z,42.71
2022-11-23T23:48:45.425Z,42.97
2022-11-23T23:51:14.031Z,42.94
2022-11-23T23:53:41.496Z,42.66
2022-11-23T23:56:15.174Z,42.71
2022-11-23T23:58:43.075Z,42.77
